»·PEaware :: SWA167 KAUS-KLAS

SWA167 :: KAUS-KLAS

FLIGHT INFORMATION

Flight Status: Arrived
Operator:
Southwest Airlines
More flights by this operator :: More flights under this callsign
Pilot: Jim P. (2486)
Aircraft: BOEING 737-800
(B738)
More flights by this aircraft type
Origin: KAUS Austin Bergstrom Intl
United States
Destination: KLAS McCarran Intl
United States
More flights between these airports :: More routes between these airports
Route: MUCKY2 MUCKY JCT Q20 CNX ZUN PGS TYSSN5
File this flight plan on PilotEdge
Remarks: RMK / SIMBRIEF
Altitude:
(Current/Filed)
36,000ft
Speed:
(Current/Filed)
452kts
Departed: 16-May-20 01:40 PM
Arrived: 16-May-20 04:11 PM
Distance/Time
Traveled:
945nm/2:31
Distance/Time
To Go:
Arrived

Flight Plot

Page will automatically refresh every two minutes.


Map Options




Map Legend


Flown Route
Filed Route
Departure Airport
Arrival Airport
Navaid (VOR, NDB)
Fix

Horizontal Profiles

Position Reports

Time Latitude Longitude Heading Altitude Ground
Speed
16-May-20 13:36 30.188015 -97.673815 177 502ft 33kts
16-May-20 13:37 30.180831 -97.673808 226 502ft 18kts
16-May-20 13:38 30.180454 -97.677303 269 502ft 6kts
16-May-20 13:39 30.183706 -97.678572 358 502ft 68kts
16-May-20 13:40 30.221585 -97.677467 4 1996ft 163kts
16-May-20 13:41 30.278760 -97.675631 359 3159ft 247kts
16-May-20 13:42 30.352840 -97.682706 327 5475ft 276kts
16-May-20 13:43 30.369960 -97.761736 257 8325ft 279kts
16-May-20 13:44 30.354282 -97.851245 259 11229ft 294kts
16-May-20 13:45 30.336512 -97.952689 260 13231ft 334kts
16-May-20 13:46 30.317130 -98.060328 260 15968ft 349kts
16-May-20 13:47 30.296923 -98.172928 262 18518ft 363kts
16-May-20 13:48 30.307205 -98.289552 282 20879ft 373kts
16-May-20 13:49 30.330600 -98.408387 282 22962ft 384kts
16-May-20 13:50 30.354781 -98.531405 282 24719ft 397kts
16-May-20 13:51 30.379544 -98.658453 281 26246ft 412kts
16-May-20 13:52 30.404664 -98.789878 281 27651ft 423kts
16-May-20 13:53 30.430445 -98.924858 280 28961ft 434kts
16-May-20 13:54 30.456634 -99.062938 280 30192ft 442kts
16-May-20 13:55 30.483047 -99.203167 279 31475ft 446kts
16-May-20 13:56 30.509885 -99.343841 279 32835ft 446kts
16-May-20 13:57 30.536537 -99.484505 278 34107ft 446kts
16-May-20 13:58 30.562751 -99.625257 278 35333ft 445kts
16-May-20 13:59 30.588713 -99.766440 278 35929ft 450kts
16-May-20 14:00 30.631344 -99.902897 290 35931ft 451kts
16-May-20 14:01 30.683058 -100.035971 290 35935ft 451kts
16-May-20 14:02 30.734163 -100.168244 290 35941ft 449kts
16-May-20 14:03 30.785888 -100.300867 290 35947ft 450kts
16-May-20 14:04 30.837099 -100.433603 290 35944ft 449kts
16-May-20 14:05 30.888061 -100.566386 290 35947ft 449kts
16-May-20 14:06 30.938817 -100.699159 291 35949ft 449kts
16-May-20 14:07 30.989570 -100.832427 291 35948ft 448kts
16-May-20 14:08 31.039978 -100.965284 291 35947ft 448kts
16-May-20 14:09 31.090280 -101.097668 291 35947ft 447kts
16-May-20 14:11 31.140169 -101.230644 291 35945ft 447kts
16-May-20 14:12 31.199011 -101.358983 304 35943ft 451kts
16-May-20 14:13 31.277862 -101.472765 307 35941ft 451kts
16-May-20 14:14 31.357444 -101.586724 307 35952ft 451kts
16-May-20 14:15 31.437136 -101.700413 307 35951ft 451kts
16-May-20 14:16 31.516461 -101.813959 307 35949ft 451kts
16-May-20 14:17 31.595738 -101.928067 307 35950ft 451kts
16-May-20 14:18 31.674843 -102.042272 308 35950ft 450kts
16-May-20 14:19 31.753145 -102.155675 307 35952ft 445kts
16-May-20 14:20 31.831247 -102.269133 307 35957ft 445kts
16-May-20 14:21 31.909021 -102.382459 307 35968ft 445kts
16-May-20 14:22 31.986677 -102.495940 308 35969ft 444kts
16-May-20 14:23 32.063954 -102.609214 308 35968ft 443kts
16-May-20 14:24 32.141162 -102.722720 308 35967ft 441kts
16-May-20 14:25 32.217803 -102.835738 308 35968ft 440kts
16-May-20 14:26 32.293992 -102.948416 309 35971ft 438kts
16-May-20 14:27 32.369871 -103.060977 309 35973ft 436kts
16-May-20 14:27 32.432569 -103.154245 309 35972ft 435kts
16-May-20 14:29 32.520324 -103.285179 309 35965ft 433kts
16-May-20 14:30 32.595045 -103.397068 309 35966ft 432kts
16-May-20 14:30 32.656938 -103.489919 309 35964ft 431kts
16-May-20 14:31 32.731378 -103.601958 310 35965ft 431kts
16-May-20 14:33 32.817742 -103.731945 309 35959ft 430kts
16-May-20 14:33 32.879386 -103.825553 310 35963ft 429kts
16-May-20 14:34 32.952897 -103.937407 310 35958ft 429kts
16-May-20 14:35 33.027737 -104.047942 311 35955ft 425kts
16-May-20 14:36 33.101254 -104.156906 311 35954ft 422kts
16-May-20 14:37 33.174825 -104.266146 311 35951ft 421kts
16-May-20 14:38 33.248250 -104.374843 311 35950ft 421kts
16-May-20 14:39 33.321622 -104.484301 311 35950ft 421kts
16-May-20 14:40 33.394747 -104.593352 311 35953ft 420kts
16-May-20 14:41 33.465787 -104.700139 311 35967ft 419kts
16-May-20 14:42 33.538204 -104.809471 311 35993ft 419kts
16-May-20 14:43 33.619884 -104.907008 321 36026ft 414kts
16-May-20 14:44 33.707798 -104.996908 321 36055ft 413kts
16-May-20 14:45 33.795004 -105.086435 321 36077ft 412kts
16-May-20 14:46 33.882267 -105.175702 321 36091ft 410kts
16-May-20 14:47 33.968951 -105.264820 321 36097ft 409kts
16-May-20 14:48 34.055120 -105.353795 321 36101ft 406kts
16-May-20 14:49 34.141269 -105.442792 321 36111ft 406kts
16-May-20 14:50 34.226762 -105.531538 321 36117ft 406kts
16-May-20 14:51 34.312457 -105.620988 321 36121ft 406kts
16-May-20 14:52 34.375589 -105.732434 290 36116ft 418kts
16-May-20 14:53 34.402577 -105.870276 287 36111ft 421kts
16-May-20 14:54 34.427958 -106.008365 287 36106ft 421kts
16-May-20 14:55 34.453658 -106.146813 287 36073ft 420kts
16-May-20 14:56 34.479247 -106.285014 287 36064ft 420kts
16-May-20 14:57 34.504399 -106.423091 287 36058ft 419kts
16-May-20 14:58 34.529284 -106.560911 287 36053ft 419kts
16-May-20 14:59 34.554073 -106.699180 286 36047ft 419kts
16-May-20 15:00 34.578653 -106.837324 286 36044ft 418kts
16-May-20 15:01 34.603055 -106.975285 286 36045ft 418kts
16-May-20 15:02 34.627302 -107.113406 286 36054ft 418kts
16-May-20 15:03 34.651373 -107.251473 286 36059ft 418kts
16-May-20 15:04 34.675311 -107.389767 286 36068ft 418kts
16-May-20 15:05 34.699082 -107.528071 286 36075ft 418kts
16-May-20 15:06 34.722648 -107.666170 286 36085ft 418kts
16-May-20 15:07 34.746113 -107.804673 286 36093ft 418kts
16-May-20 15:08 34.769431 -107.943316 286 36102ft 418kts
16-May-20 15:09 34.792591 -108.082010 285 36107ft 417kts
16-May-20 15:10 34.815448 -108.219941 285 36107ft 418kts
16-May-20 15:11 34.838272 -108.358673 285 36105ft 417kts
16-May-20 15:12 34.860860 -108.496997 285 36104ft 416kts
16-May-20 15:13 34.883313 -108.635535 285 36102ft 416kts
16-May-20 15:14 34.905625 -108.773940 285 36101ft 417kts
16-May-20 15:15 34.927994 -108.912579 284 36102ft 416kts
16-May-20 15:16 34.949771 -109.051310 284 36101ft 416kts
16-May-20 15:17 34.971637 -109.189487 285 36087ft 416kts
16-May-20 15:18 34.994935 -109.328064 285 36086ft 416kts
16-May-20 15:19 35.017783 -109.466250 284 36091ft 416kts
16-May-20 15:20 35.040808 -109.604740 285 36091ft 415kts
16-May-20 15:21 35.063998 -109.742873 284 36107ft 415kts
16-May-20 15:22 35.086730 -109.881211 284 36110ft 416kts
16-May-20 15:23 35.109256 -110.019730 284 36116ft 416kts
16-May-20 15:24 35.131626 -110.158473 284 36094ft 415kts
16-May-20 15:25 35.153783 -110.296946 284 36065ft 415kts
16-May-20 15:26 35.175793 -110.435577 284 36049ft 415kts
16-May-20 15:27 35.197609 -110.574045 283 36040ft 415kts
16-May-20 15:28 35.219328 -110.712978 283 36038ft 415kts
16-May-20 15:29 35.240834 -110.851647 283 36051ft 415kts
16-May-20 15:30 35.260699 -110.980698 283 36068ft 415kts
16-May-20 15:31 35.281884 -111.119412 283 36097ft 415kts
16-May-20 15:32 35.302963 -111.258507 283 36132ft 414kts
16-May-20 15:33 35.323808 -111.397202 283 36160ft 414kts
16-May-20 15:34 35.344481 -111.535875 283 36178ft 412kts
16-May-20 15:35 35.363995 -111.667811 282 36183ft 413kts
16-May-20 15:36 35.384314 -111.806311 282 36188ft 413kts
16-May-20 15:37 35.404502 -111.945067 282 36183ft 412kts
16-May-20 15:38 35.424450 -112.083315 282 36180ft 412kts
16-May-20 15:39 35.444242 -112.221680 282 36178ft 412kts
16-May-20 15:40 35.463899 -112.360242 282 36174ft 412kts
16-May-20 15:41 35.483347 -112.498523 282 36169ft 412kts
16-May-20 15:42 35.502678 -112.637152 281 36067ft 413kts
16-May-20 15:43 35.521699 -112.774751 281 34086ft 403kts
16-May-20 15:44 35.539993 -112.908218 281 32237ft 389kts
16-May-20 15:45 35.557569 -113.037534 280 30479ft 378kts
16-May-20 15:46 35.574643 -113.163419 281 28776ft 369kts
16-May-20 15:47 35.591281 -113.286296 279 27088ft 359kts
16-May-20 15:48 35.606965 -113.405869 279 25431ft 350kts
16-May-20 15:49 35.622245 -113.522803 279 23787ft 341kts
16-May-20 15:50 35.638450 -113.636514 279 22165ft 334kts
16-May-20 15:51 35.654105 -113.747399 279 20689ft 324kts
16-May-20 15:52 35.669184 -113.855592 279 19166ft 318kts
16-May-20 15:53 35.684090 -113.962377 279 17647ft 314kts
16-May-20 15:54 35.699154 -114.067632 278 16119ft 311kts
16-May-20 15:55 35.713626 -114.172439 278 14618ft 310kts
16-May-20 15:56 35.727941 -114.277385 277 13108ft 310kts
16-May-20 15:57 35.750764 -114.377754 310 12024ft 311kts
16-May-20 15:58 35.828453 -114.423918 339 11416ft 311kts
16-May-20 15:59 35.909085 -114.461368 338 10865ft 309kts
16-May-20 16:00 35.988227 -114.498498 338 10323ft 294kts
16-May-20 16:01 36.043782 -114.557771 286 9659ft 266kts
16-May-20 16:03 36.058977 -114.644262 280 8785ft 251kts
16-May-20 16:04 36.072690 -114.726161 276 7991ft 236kts
16-May-20 16:05 36.073635 -114.807675 269 6834ft 239kts
16-May-20 16:06 36.073661 -114.890324 269 5656ft 241kts
16-May-20 16:07 36.073870 -114.969919 269 4543ft 212kts
16-May-20 16:08 36.073783 -115.033143 269 3614ft 160kts
16-May-20 16:09 36.073728 -115.085563 269 2867ft 148kts
16-May-20 16:10 36.073654 -115.136959 271 2124ft 146kts
16-May-20 16:11 36.074041 -115.155522 338 2123ft 13kts
16-May-20 16:12 36.077885 -115.157711 74 2123ft 15kts
16-May-20 16:13 36.077925 -115.152831 89 2123ft 22kts
16-May-20 16:14 36.078808 -115.147623 329 2123ft 17kts
16-May-20 16:15 36.081655 -115.148296 45 2123ft 4kts
16-May-20 16:16 36.081735 -115.148173 61 2123ft 0kts

Navigation Log

Ident Type
Flight plan parsing failed, navigation log unavailable